Time;durP1;ratioP1;P1;durP2;ratioP2;P2;SDS_P1;SDS_P2;PMS_P1;PMS_P2;Temp;Humidity;BMP_temperature;BMP_pressure;BME280_temperature;BME280_humidity;BME280_pressure;Samples;Min_cycle;Max_cycle;Signal;HPM_P1;HPM_P2
2023/07/24 00:02:17;;;;;;;0.90;0.90;;;19.10;1.00;;;;;;4984075;28;20226;-90
2023/07/24 00:04:42;;;;;;;1.05;0.95;;;19.10;1.00;;;;;;4983947;28;20267;-92
2023/07/24 00:07:08;;;;;;;1.20;1.10;;;19.10;1.00;;;;;;4976230;28;20183;-91
2023/07/24 00:09:33;;;;;;;1.10;1.00;;;19.10;1.00;;;;;;4978376;28;20206;-92
2023/07/24 00:11:59;;;;;;;0.90;0.90;;;19.10;1.00;;;;;;4981892;28;20542;-91
2023/07/24 00:14:24;;;;;;;1.20;1.10;;;19.10;1.00;;;;;;4980105;28;20180;-91
2023/07/24 00:16:50;;;;;;;1.23;1.00;;;19.10;1.00;;;;;;4983458;28;20746;-91
2023/07/24 00:19:16;;;;;;;1.00;0.90;;;19.20;1.00;;;;;;4984281;28;20203;-91
2023/07/24 00:21:41;;;;;;;0.90;0.90;;;19.20;1.00;;;;;;4979032;28;20191;-91
2023/07/24 00:24:07;;;;;;;1.77;0.98;;;19.20;1.00;;;;;;4980852;28;20326;-91
2023/07/24 00:26:32;;;;;;;1.30;1.00;;;19.20;1.00;;;;;;4976768;28;20195;-91
2023/07/24 00:29:00;;;;;;;1.08;0.98;;;19.20;1.00;;;;;;4994069;28;20211;-91
2023/07/24 00:31:26;;;;;;;1.23;1.00;;;19.20;1.00;;;;;;4989678;28;20557;-92
2023/07/24 00:33:51;;;;;;;2.20;0.90;;;19.20;1.00;;;;;;4974228;28;20189;-90
2023/07/24 00:36:17;;;;;;;1.02;0.90;;;19.20;1.00;;;;;;4981613;28;20180;-92
2023/07/24 00:38:42;;;;;;;1.08;0.95;;;19.30;1.00;;;;;;4978726;28;20765;-92
2023/07/24 00:41:08;;;;;;;1.33;0.95;;;19.30;1.00;;;;;;4985994;28;20186;-92
2023/07/24 00:43:33;;;;;;;0.90;0.90;;;19.30;1.00;;;;;;4976470;28;20600;-91
2023/07/24 00:45:59;;;;;;;1.45;1.13;;;19.30;1.00;;;;;;4976864;28;20271;-92
2023/07/24 00:48:25;;;;;;;0.90;0.90;;;19.30;1.00;;;;;;4986190;28;20204;-92
2023/07/24 00:50:51;;;;;;;0.80;0.80;;;19.30;1.00;;;;;;4975655;28;20226;-93
2023/07/24 00:53:19;;;;;;;0.77;0.77;;;19.30;1.00;;;;;;4988524;28;20183;-92
2023/07/24 01:13:36;;;;;;;1.00;0.95;;;19.30;1.00;;;;;;4819444;29;20298;-92
2023/07/24 01:16:12;;;;;;;1.55;0.98;;;19.30;99.90;;;;;;4884053;28;20697;-92
2023/07/24 01:18:39;;;;;;;1.15;1.02;;;19.40;99.90;;;;;;4962847;28;20203;-92
2023/07/24 01:21:08;;;;;;;0.90;0.90;;;19.40;99.90;;;;;;4992249;28;20192;-92
2023/07/24 01:31:08;;;;;;;1.15;1.00;;;19.40;99.90;;;;;;4853990;29;20626;-92
2023/07/24 01:33:35;;;;;;;0.73;0.73;;;19.30;99.90;;;;;;4853563;29;20287;-93
2023/07/24 01:36:03;;;;;;;1.38;1.13;;;19.30;99.90;;;;;;4877686;29;20195;-92
2023/07/24 01:46:11;;;;;;;1.77;1.10;;;19.10;1.00;;;;;;4846195;29;20283;-92
2023/07/24 01:49:16;;;;;;;0.90;0.90;;;19.00;1.00;;;;;;4809540;29;20225;-92
2023/07/24 01:51:41;;;;;;;1.48;1.13;;;19.00;1.00;;;;;;4974236;28;20216;-91
2023/07/24 01:54:07;;;;;;;1.20;1.10;;;18.90;1.00;;;;;;5001458;28;20172;-92
2023/07/24 01:56:35;;;;;;;1.42;1.10;;;18.80;1.00;;;;;;4985179;28;20183;-92
2023/07/24 01:59:01;;;;;;;0.93;0.90;;;18.80;1.00;;;;;;4982221;28;20203;-92
2023/07/24 02:01:27;;;;;;;1.30;1.20;;;18.90;1.00;;;;;;5002436;28;20201;-92
2023/07/24 02:03:52;;;;;;;1.23;1.13;;;18.90;1.00;;;;;;4982536;28;20267;-93
2023/07/24 02:06:18;;;;;;;1.67;1.08;;;18.90;1.00;;;;;;4980423;28;20180;-92
2023/07/24 02:08:48;;;;;;;1.13;1.02;;;19.00;1.00;;;;;;4982037;28;20207;-92
2023/07/24 02:11:15;;;;;;;1.15;1.13;;;19.00;1.00;;;;;;4975089;28;20203;-92
2023/07/24 02:13:43;;;;;;;1.85;1.10;;;19.00;1.00;;;;;;4986078;28;20184;-92
2023/07/24 02:16:08;;;;;;;1.20;1.10;;;19.10;1.00;;;;;;4963820;28;20199;-92
2023/07/24 02:18:34;;;;;;;1.48;1.20;;;19.10;1.00;;;;;;4992493;28;20200;-92
2023/07/24 02:21:00;;;;;;;1.10;1.00;;;19.10;1.00;;;;;;4998028;28;20717;-92
2023/07/24 02:23:25;;;;;;;1.05;1.00;;;19.10;1.00;;;;;;4991678;28;20300;-92
2023/07/24 02:25:52;;;;;;;0.90;0.90;;;19.10;1.00;;;;;;4980399;28;20734;-93
2023/07/24 02:28:18;;;;;;;1.20;1.10;;;19.10;1.00;;;;;;4991554;28;20203;-94
2023/07/24 02:30:43;;;;;;;1.33;1.20;;;19.10;1.00;;;;;;4979023;28;20188;-94
2023/07/24 02:33:09;;;;;;;1.30;1.20;;;19.10;1.00;;;;;;5001971;28;20268;-94
2023/07/24 02:35:39;;;;;;;1.58;1.20;;;19.20;1.00;;;;;;5002764;28;20195;-92
2023/07/24 02:38:05;;;;;;;1.30;1.10;;;19.10;1.00;;;;;;4980389;28;20226;-91
2023/07/24 02:40:31;;;;;;;1.08;0.98;;;19.10;1.00;;;;;;4980282;28;20180;-92
2023/07/24 02:42:56;;;;;;;1.10;1.00;;;19.10;1.00;;;;;;4995543;28;20191;-92
2023/07/24 02:46:12;;;;;;;1.50;0.90;;;19.10;1.00;;;;;;4991486;28;20525;-92
2023/07/24 02:59:59;;;;;;;1.25;1.15;;;19.00;1.00;;;;;;4861183;29;20249;-93
2023/07/24 03:02:25;;;;;;;1.48;1.38;;;19.00;1.00;;;;;;4860980;29;20188;-92
2023/07/24 03:04:51;;;;;;;1.48;1.35;;;19.10;1.00;;;;;;4846994;29;20193;-92
2023/07/24 03:07:16;;;;;;;1.33;1.23;;;19.10;1.00;;;;;;4961687;28;20204;-93
2023/07/24 03:09:42;;;;;;;1.30;1.20;;;19.10;1.00;;;;;;4980848;28;20208;-92
2023/07/24 03:12:08;;;;;;;1.50;1.40;;;19.10;1.00;;;;;;4975000;28;20205;-92
2023/07/24 03:14:33;;;;;;;1.77;1.40;;;19.10;1.00;;;;;;4986863;28;20733;-92
2023/07/24 03:16:59;;;;;;;1.65;1.55;;;19.10;1.00;;;;;;4988139;28;20513;-92
2023/07/24 03:19:24;;;;;;;1.92;1.33;;;19.10;1.00;;;;;;4985027;28;20231;-91
2023/07/24 03:21:50;;;;;;;1.40;1.30;;;19.10;1.00;;;;;;4973758;28;20211;-91
2023/07/24 03:24:16;;;;;;;1.50;1.40;;;19.10;1.00;;;;;;4987131;28;20221;-92
2023/07/24 03:26:42;;;;;;;1.40;1.30;;;19.00;1.00;;;;;;4975179;28;20192;-91
2023/07/24 03:29:08;;;;;;;1.40;1.30;;;19.00;1.00;;;;;;4977539;28;20200;-91
2023/07/24 03:31:33;;;;;;;1.45;1.35;;;18.90;1.00;;;;;;4978137;28;20238;-92
2023/07/24 03:33:59;;;;;;;1.38;1.27;;;18.90;1.00;;;;;;4978248;28;20634;-91
2023/07/24 03:40:41;;;;;;;1.40;1.30;;;19.00;1.00;;;;;;4954418;29;20213;-91
2023/07/24 03:54:07;;;;;;;1.40;1.30;;;19.00;99.90;;;;;;4892742;29;20255;-92
2023/07/24 03:56:33;;;;;;;1.45;1.35;;;19.00;1.00;;;;;;4949263;28;20223;-92
2023/07/24 03:58:59;;;;;;;1.88;1.73;;;19.00;1.00;;;;;;5009756;28;20188;-91
2023/07/24 04:01:24;;;;;;;1.58;1.48;;;19.00;1.00;;;;;;4977740;28;20176;-91
2023/07/24 04:03:50;;;;;;;1.60;1.50;;;19.00;1.00;;;;;;4991478;28;20184;-91
2023/07/24 04:06:16;;;;;;;1.80;1.70;;;18.90;1.00;;;;;;4997136;28;20184;-92
2023/07/24 04:08:41;;;;;;;1.70;1.60;;;18.90;1.00;;;;;;4996980;28;20231;-91
2023/07/24 04:11:07;;;;;;;2.28;1.50;;;18.80;1.00;;;;;;4979304;28;20589;-92
2023/07/24 04:13:32;;;;;;;1.70;1.60;;;18.80;1.00;;;;;;4975869;28;20180;-92
2023/07/24 04:15:59;;;;;;;1.85;1.70;;;18.80;1.00;;;;;;4978958;28;20191;-91
2023/07/24 04:18:24;;;;;;;1.70;1.60;;;18.80;1.00;;;;;;4997058;28;20199;-92
2023/07/24 04:20:50;;;;;;;1.77;1.67;;;18.80;1.00;;;;;;4978757;28;20204;-92
2023/07/24 04:23:16;;;;;;;1.90;1.80;;;18.80;1.00;;;;;;4976829;28;20260;-92
2023/07/24 04:25:41;;;;;;;1.70;1.60;;;18.80;1.00;;;;;;4974258;28;20181;-90
2023/07/24 04:28:07;;;;;;;2.13;1.77;;;18.80;1.00;;;;;;4984624;28;20271;-91
2023/07/24 04:30:33;;;;;;;1.52;1.42;;;18.80;1.00;;;;;;4989718;28;20181;-89
2023/07/24 04:32:58;;;;;;;2.30;1.60;;;18.80;1.00;;;;;;4978422;28;20203;-92
2023/07/24 04:39:31;;;;;;;1.75;1.40;;;18.70;1.00;;;;;;4877485;29;20239;-92
2023/07/24 04:53:17;;;;;;;1.98;1.52;;;19.20;99.90;;;;;;4805000;29;20322;-90
2023/07/24 04:55:42;;;;;;;3.00;1.40;;;19.60;99.90;;;;;;4813538;29;20213;-90
2023/07/24 04:58:08;;;;;;;1.42;1.33;;;20.30;99.90;;;;;;4917661;28;21167;-89
2023/07/24 05:00:35;;;;;;;2.05;1.50;;;21.90;36.80;;;;;;4972496;28;20211;-90
2023/07/24 05:03:00;;;;;;;1.60;1.48;;;23.60;1.00;;;;;;4957481;28;20216;-88
2023/07/24 05:05:26;;;;;;;1.60;1.35;;;24.60;1.00;;;;;;4966794;28;20181;-89
2023/07/24 05:07:51;;;;;;;1.55;1.30;;;24.20;1.00;;;;;;4975988;28;20443;-88
2023/07/24 05:10:17;;;;;;;1.58;1.30;;;23.50;1.00;;;;;;4977889;28;20209;-89
2023/07/24 05:12:43;;;;;;;1.63;1.30;;;22.80;1.00;;;;;;4982063;28;20778;-90
2023/07/24 05:15:09;;;;;;;1.58;1.48;;;23.20;1.00;;;;;;4998607;28;20192;-90
2023/07/24 05:17:34;;;;;;;1.33;1.23;;;24.70;1.00;;;;;;4997671;28;20180;-90
2023/07/24 05:20:00;;;;;;;1.88;1.45;;;25.60;1.00;;;;;;4983130;28;20231;-89
2023/07/24 05:22:25;;;;;;;1.48;1.38;;;25.30;1.00;;;;;;4981788;28;20246;-89
2023/07/24 05:24:51;;;;;;;1.77;1.52;;;24.90;1.00;;;;;;4975215;28;20180;-89
2023/07/24 05:27:17;;;;;;;2.53;1.42;;;24.70;1.00;;;;;;4979954;28;20188;-90
2023/07/24 05:29:43;;;;;;;1.10;1.10;;;25.60;1.00;;;;;;4981490;28;20623;-90
2023/07/24 05:32:08;;;;;;;2.08;1.33;;;27.00;1.00;;;;;;4973048;28;20330;-89
2023/07/24 05:34:43;;;;;;;1.67;1.50;;;27.90;1.00;;;;;;4984911;28;20271;-89
2023/07/24 05:37:11;;;;;;;1.67;1.30;;;28.50;1.00;;;;;;4978590;28;20188;-89
2023/07/24 05:39:36;;;;;;;1.52;1.42;;;29.10;1.00;;;;;;4979477;28;20848;-89
2023/07/24 05:42:02;;;;;;;2.05;1.55;;;29.40;1.00;;;;;;4978865;28;20319;-90
2023/07/24 05:44:28;;;;;;;1.60;1.50;;;29.60;1.00;;;;;;4962612;28;20568;-90
2023/07/24 05:46:54;;;;;;;2.97;1.77;;;28.30;1.00;;;;;;4984244;28;20266;-89
2023/07/24 05:49:20;;;;;;;3.15;1.65;;;26.30;1.00;;;;;;4975363;28;20208;-89
2023/07/24 05:51:56;;;;;;;1.90;1.70;;;25.10;1.00;;;;;;4981239;28;20231;-90
2023/07/24 05:54:22;;;;;;;1.42;1.33;;;24.70;1.00;;;;;;4980471;28;20189;-89
2023/07/24 05:56:48;;;;;;;2.55;1.92;;;24.60;1.00;;;;;;4980640;28;20188;-89
2023/07/24 05:59:13;;;;;;;1.92;1.77;;;24.40;1.00;;;;;;4976403;28;20271;-89
2023/07/24 06:01:39;;;;;;;2.17;1.58;;;23.60;1.00;;;;;;4970493;28;20194;-89
2023/07/24 06:04:07;;;;;;;2.00;1.80;;;23.10;1.00;;;;;;4977399;28;20701;-87
2023/07/24 06:06:32;;;;;;;2.05;1.70;;;23.00;1.00;;;;;;4962057;28;20200;-89
2023/07/24 06:08:58;;;;;;;1.88;1.70;;;22.60;1.00;;;;;;4973424;28;20220;-89
2023/07/24 06:11:24;;;;;;;2.35;1.85;;;22.30;1.00;;;;;;4972872;28;20209;-89
2023/07/24 06:13:49;;;;;;;1.83;1.50;;;22.00;1.00;;;;;;4970176;28;20192;-90
2023/07/24 06:16:15;;;;;;;2.03;1.83;;;21.80;1.00;;;;;;4976153;28;20989;-90
2023/07/24 06:18:42;;;;;;;1.75;1.65;;;21.60;1.00;;;;;;4975854;28;20255;-89
2023/07/24 06:21:08;;;;;;;1.75;1.65;;;21.60;1.00;;;;;;4976868;28;20708;-90
2023/07/24 06:23:33;;;;;;;2.15;1.95;;;21.50;1.00;;;;;;4994948;28;20192;-90
2023/07/24 06:26:00;;;;;;;2.40;1.60;;;21.60;1.00;;;;;;4996527;28;20224;-89
2023/07/24 06:28:26;;;;;;;1.73;1.63;;;21.50;1.00;;;;;;4979621;28;20260;-90
2023/07/24 06:30:54;;;;;;;2.15;1.67;;;21.60;1.00;;;;;;4979448;28;20188;-90
2023/07/24 06:33:21;;;;;;;2.70;2.03;;;21.50;1.00;;;;;;4983613;28;20745;-90
2023/07/24 06:35:50;;;;;;;2.10;1.90;;;21.50;1.00;;;;;;4983303;28;20179;-89
2023/07/24 06:38:16;;;;;;;1.95;1.75;;;21.60;1.00;;;;;;4979994;28;20614;-90
2023/07/24 06:40:42;;;;;;;4.50;1.83;;;21.70;1.00;;;;;;4981303;28;20235;-89
2023/07/24 06:43:08;;;;;;;2.08;1.83;;;22.00;1.00;;;;;;4978808;28;20674;-89
2023/07/24 06:45:33;;;;;;;2.03;1.83;;;22.50;1.00;;;;;;4991527;28;20189;-89
2023/07/24 06:47:59;;;;;;;1.70;1.60;;;24.00;1.00;;;;;;4975293;28;20172;-90
2023/07/24 06:50:24;;;;;;;1.75;1.65;;;27.00;1.00;;;;;;4981349;28;20306;-91
2023/07/24 06:52:51;;;;;;;2.10;1.80;;;29.10;1.00;;;;;;4969299;28;20213;-89
2023/07/24 06:55:17;;;;;;;1.90;1.80;;;29.80;1.00;;;;;;4958489;28;20328;-91
2023/07/24 06:57:43;;;;;;;2.08;1.80;;;29.40;1.00;;;;;;4966929;28;20219;-92
2023/07/24 07:00:49;;;;;;;3.33;2.03;;;28.70;1.00;;;;;;4984885;28;20263;-92
2023/07/24 07:03:58;;;;;;;2.17;1.70;;;27.60;1.00;;;;;;4943886;29;20201;-92
2023/07/24 07:06:24;;;;;;;2.30;1.80;;;26.60;1.00;;;;;;4971396;28;20199;-92
2023/07/24 07:08:50;;;;;;;2.17;1.98;;;25.70;1.00;;;;;;4984182;28;20210;-92
2023/07/24 07:11:15;;;;;;;2.50;1.98;;;25.50;1.00;;;;;;4979503;28;20204;-91
2023/07/24 07:13:41;;;;;;;3.15;1.77;;;25.10;1.00;;;;;;4982823;28;20188;-91
2023/07/24 07:16:06;;;;;;;2.25;1.80;;;24.50;1.00;;;;;;4984368;28;20574;-91
2023/07/24 07:18:32;;;;;;;3.13;1.98;;;24.00;1.00;;;;;;4982264;28;20213;-93
2023/07/24 07:20:58;;;;;;;1.98;1.88;;;24.00;1.00;;;;;;4986018;28;20176;-92
2023/07/24 07:23:23;;;;;;;2.15;1.95;;;23.90;1.00;;;;;;4986184;28;20189;-92
2023/07/24 07:25:51;;;;;;;2.35;1.85;;;23.50;1.00;;;;;;4985207;28;20231;-92
2023/07/24 07:28:17;;;;;;;3.97;1.90;;;23.50;1.00;;;;;;4982721;28;20224;-94
2023/07/24 07:30:43;;;;;;;2.80;1.90;;;23.40;1.00;;;;;;4988541;28;20187;-94
2023/07/24 07:33:09;;;;;;;2.10;1.95;;;23.30;1.00;;;;;;4983620;28;20650;-91
2023/07/24 07:35:36;;;;;;;2.00;1.90;;;23.20;1.00;;;;;;4980336;28;20184;-92
2023/07/24 07:38:02;;;;;;;2.50;2.10;;;23.30;1.00;;;;;;4976048;28;20199;-92
2023/07/24 07:40:28;;;;;;;2.65;1.73;;;23.30;1.00;;;;;;4977809;28;20215;-91
2023/07/24 07:42:54;;;;;;;2.95;2.17;;;23.50;1.00;;;;;;4985422;28;20215;-91
2023/07/24 07:45:21;;;;;;;2.10;1.70;;;23.90;1.00;;;;;;4984773;28;20184;-92
2023/07/24 07:47:47;;;;;;;3.30;1.90;;;24.10;1.00;;;;;;4981103;28;20194;-91
2023/07/24 07:50:12;;;;;;;2.45;1.90;;;23.80;1.00;;;;;;4978784;28;20290;-91
2023/07/24 07:52:38;;;;;;;2.50;2.00;;;24.40;1.00;;;;;;4981805;28;20261;-91
2023/07/24 07:55:06;;;;;;;2.30;2.10;;;24.80;1.00;;;;;;4986746;28;20184;-91
2023/07/24 07:57:36;;;;;;;2.67;2.10;;;25.70;1.00;;;;;;4990301;28;20181;-92
2023/07/24 08:00:05;;;;;;;2.50;2.10;;;25.50;1.00;;;;;;4985980;28;20189;-91
2023/07/24 08:03:09;;;;;;;8.15;2.72;;;25.90;1.00;;;;;;4984114;28;20191;-92
2023/07/24 08:05:35;;;;;;;6.70;2.80;;;25.80;1.00;;;;;;4993633;28;20180;-92
2023/07/24 08:08:01;;;;;;;2.42;2.22;;;25.40;1.00;;;;;;4986140;28;20256;-93
2023/07/24 08:10:26;;;;;;;4.05;2.40;;;25.50;1.00;;;;;;4994058;28;20219;-91
2023/07/24 08:12:52;;;;;;;2.80;2.40;;;25.60;1.00;;;;;;4989723;28;20220;-91
2023/07/24 08:15:18;;;;;;;3.70;2.63;;;25.40;1.00;;;;;;4994344;28;20203;-91
2023/07/24 08:17:43;;;;;;;3.05;2.70;;;25.40;1.00;;;;;;4980313;28;20187;-90
2023/07/24 08:20:15;;;;;;;3.40;2.90;;;25.00;1.00;;;;;;4986611;28;20753;-89
2023/07/24 08:22:41;;;;;;;2.90;2.60;;;24.60;1.00;;;;;;4979354;28;20590;-90
2023/07/24 08:25:07;;;;;;;3.22;2.92;;;24.60;1.00;;;;;;4989050;28;20195;-91
2023/07/24 08:27:32;;;;;;;3.90;3.10;;;24.80;1.00;;;;;;4980161;28;20197;-90
2023/07/24 08:29:58;;;;;;;4.15;2.83;;;24.80;1.00;;;;;;4986333;28;20694;-90
2023/07/24 08:32:24;;;;;;;3.78;2.83;;;24.80;1.00;;;;;;4985803;28;20235;-90
2023/07/24 08:34:49;;;;;;;3.05;2.75;;;24.70;1.00;;;;;;4987725;28;20218;-90
2023/07/24 08:37:15;;;;;;;4.38;3.28;;;24.70;1.00;;;;;;4989595;28;20206;-90
2023/07/24 08:39:41;;;;;;;4.57;3.25;;;24.70;1.00;;;;;;4989456;28;20208;-90
2023/07/24 08:42:11;;;;;;;3.58;2.97;;;24.70;1.00;;;;;;4990204;28;20191;-88
2023/07/24 08:44:37;;;;;;;3.75;3.17;;;24.80;1.00;;;;;;4989257;28;20180;-90
2023/07/24 08:47:04;;;;;;;3.30;2.88;;;25.00;1.00;;;;;;4993272;28;20645;-88
2023/07/24 08:49:30;;;;;;;4.53;3.40;;;25.10;1.00;;;;;;4978529;28;20262;-91
2023/07/24 08:51:56;;;;;;;3.55;2.92;;;24.90;1.00;;;;;;4987996;28;20701;-91
2023/07/24 08:54:24;;;;;;;2.80;2.60;;;25.00;1.00;;;;;;4986126;28;20191;-91
2023/07/24 08:56:52;;;;;;;4.43;3.08;;;25.00;1.00;;;;;;4979829;28;20212;-91
2023/07/24 08:59:17;;;;;;;3.97;3.00;;;24.70;1.00;;;;;;4985243;28;20211;-90
2023/07/24 09:01:43;;;;;;;3.92;3.00;;;24.30;1.00;;;;;;4985918;28;20188;-92
2023/07/24 09:04:09;;;;;;;3.30;2.95;;;24.10;1.00;;;;;;4977863;28;20238;-90
2023/07/24 09:06:35;;;;;;;3.35;3.05;;;24.00;1.00;;;;;;4997245;28;20207;-92
2023/07/24 09:09:01;;;;;;;3.70;3.03;;;23.90;1.00;;;;;;4989817;28;20211;-90
2023/07/24 09:11:27;;;;;;;3.60;2.92;;;23.80;1.00;;;;;;4978490;28;20196;-90
2023/07/24 09:13:52;;;;;;;3.53;2.60;;;23.50;1.00;;;;;;4979811;28;20219;-92
2023/07/24 09:16:26;;;;;;;9.10;3.78;;;23.20;1.00;;;;;;4988382;28;20227;-92
2023/07/24 09:18:52;;;;;;;7.60;3.92;;;22.30;1.00;;;;;;4982657;28;20214;-88
2023/07/24 09:21:32;;;;;;;7.13;3.90;;;21.40;1.00;;;;;;4979149;28;20196;-93
2023/07/24 09:24:08;;;;;;;3.92;3.40;;;20.90;99.90;;;;;;4979620;28;20451;-91
2023/07/24 09:26:33;;;;;;;5.25;3.50;;;20.70;99.90;;;;;;4974522;28;20307;-90
2023/07/24 09:28:59;;;;;;;4.03;3.60;;;20.70;8.40;;;;;;4976193;28;20326;-91
2023/07/24 09:31:35;;;;;;;3.40;3.05;;;20.90;1.00;;;;;;4986520;28;20220;-91
2023/07/24 09:34:14;;;;;;;3.97;3.08;;;21.10;99.90;;;;;;4972779;28;20318;-92
2023/07/24 09:36:39;;;;;;;4.32;3.00;;;21.30;99.90;;;;;;4975935;28;20191;-91
2023/07/24 09:39:06;;;;;;;3.55;3.25;;;21.60;99.90;;;;;;4988340;28;20286;-91
2023/07/24 09:41:31;;;;;;;3.67;3.38;;;21.70;75.30;;;;;;4992984;28;20278;-91
2023/07/24 09:44:00;;;;;;;3.78;2.70;;;22.00;99.90;;;;;;4982165;28;20263;-92
2023/07/24 09:46:27;;;;;;;3.92;3.30;;;22.30;1.00;;;;;;4994014;28;20184;-91
2023/07/24 09:48:55;;;;;;;3.85;3.47;;;22.60;1.00;;;;;;4994343;28;20219;-90
2023/07/24 09:51:21;;;;;;;5.47;3.10;;;22.70;1.00;;;;;;4995391;28;20208;-91
2023/07/24 09:54:01;;;;;;;3.40;3.10;;;22.80;1.00;;;;;;4995031;28;20680;-92
2023/07/24 09:56:28;;;;;;;3.90;3.20;;;23.00;1.00;;;;;;4995476;28;20172;-90
2023/07/24 09:59:15;;;;;;;3.67;2.88;;;23.00;1.00;;;;;;4998836;28;20263;-91
2023/07/24 10:01:42;;;;;;;3.38;3.08;;;23.10;99.90;;;;;;5016272;28;20196;-92
2023/07/24 10:04:09;;;;;;;3.03;2.70;;;23.00;99.90;;;;;;4999358;28;20189;-92
2023/07/24 10:06:34;;;;;;;3.13;2.38;;;22.90;99.90;;;;;;4999652;28;20183;-91
2023/07/24 10:09:01;;;;;;;3.42;2.72;;;23.20;99.90;;;;;;4998913;28;20715;-91
2023/07/24 10:11:27;;;;;;;2.47;2.28;;;23.70;99.90;;;;;;4999123;28;20209;-92
2023/07/24 10:13:53;;;;;;;2.97;2.47;;;23.80;99.90;;;;;;4988369;28;20176;-91
2023/07/24 10:16:19;;;;;;;2.53;2.33;;;23.70;99.90;;;;;;4979441;28;20208;-92
2023/07/24 10:18:46;;;;;;;2.38;2.13;;;23.60;99.90;;;;;;4979384;28;20365;-92
2023/07/24 10:21:13;;;;;;;2.40;2.20;;;23.30;99.90;;;;;;4969069;28;20185;-91
2023/07/24 10:23:44;;;;;;;2.05;1.85;;;23.30;99.90;;;;;;4990403;28;20230;-91
2023/07/24 10:26:31;;;;;;;2.47;2.10;;;23.20;99.90;;;;;;4997745;28;20665;-91
2023/07/24 10:28:57;;;;;;;2.30;2.10;;;23.30;99.90;;;;;;4996753;28;20223;-91
2023/07/24 10:31:28;;;;;;;1.92;1.70;;;23.30;56.80;;;;;;4981417;28;20208;-93
2023/07/24 10:37:36;;;;;;;1.90;1.60;;;23.40;12.40;;;;;;4884996;28;20211;-91
2023/07/24 10:40:27;;;;;;;2.88;1.90;;;23.70;1.00;;;;;;4966943;28;20392;-92
2023/07/24 10:43:06;;;;;;;2.30;2.10;;;23.80;1.00;;;;;;4986248;28;20287;-93
2023/07/24 10:45:51;;;;;;;2.55;2.05;;;23.90;1.00;;;;;;4979035;28;20180;-92
2023/07/24 10:48:19;;;;;;;3.63;2.22;;;24.00;1.00;;;;;;4993090;28;20218;-91
2023/07/24 10:50:50;;;;;;;3.28;2.25;;;24.00;1.00;;;;;;4994243;28;20192;-92
2023/07/24 10:53:18;;;;;;;2.83;2.08;;;24.10;1.00;;;;;;4995498;28;20190;-91
2023/07/24 10:55:44;;;;;;;2.63;1.92;;;24.20;1.00;;;;;;4980805;28;20195;-91
2023/07/24 10:58:12;;;;;;;2.28;2.08;;;24.00;1.00;;;;;;4989829;28;20180;-91
2023/07/24 11:04:20;;;;;;;1.77;1.52;;;24.00;1.00;;;;;;4890666;29;20212;-90
2023/07/24 11:06:51;;;;;;;1.58;1.30;;;24.40;1.00;;;;;;4927641;28;20201;-92
2023/07/24 11:09:19;;;;;;;2.10;1.90;;;24.50;1.00;;;;;;4988413;28;20212;-91
2023/07/24 11:11:45;;;;;;;48.47;5.40;;;24.70;1.00;;;;;;4980710;28;20196;-91
2023/07/24 11:14:15;;;;;;;35.85;5.50;;;24.60;1.00;;;;;;4990347;28;20660;-92
2023/07/24 11:16:50;;;;;;;19.15;3.63;;;24.70;1.00;;;;;;4982603;28;20191;-92
2023/07/24 11:19:23;;;;;;;17.27;3.58;;;24.70;1.00;;;;;;4991230;28;20203;-92
2023/07/24 11:21:49;;;;;;;2.47;1.65;;;24.40;1.00;;;;;;4982759;28;20235;-92
2023/07/24 11:24:17;;;;;;;6.38;2.25;;;24.40;1.00;;;;;;4979628;28;20187;-92
2023/07/24 11:26:43;;;;;;;2.33;1.80;;;24.30;1.00;;;;;;5001455;28;20180;-92
2023/07/24 11:39:45;;;;;;;2.35;1.50;;;24.30;1.00;;;;;;4992854;28;20247;-90
2023/07/24 11:42:16;;;;;;;1.73;1.50;;;24.50;1.00;;;;;;4989960;28;20563;-92
2023/07/24 11:44:42;;;;;;;1.98;1.77;;;24.60;1.00;;;;;;4996990;28;20192;-92
2023/07/24 11:47:08;;;;;;;2.00;1.90;;;24.70;1.00;;;;;;4988851;28;20181;-89
2023/07/24 11:49:33;;;;;;;2.10;1.90;;;25.00;1.00;;;;;;4989201;28;20239;-90
2023/07/24 11:52:09;;;;;;;2.03;1.80;;;25.30;1.00;;;;;;4986688;28;20265;-91
2023/07/24 11:54:35;;;;;;;2.55;2.05;;;25.50;1.00;;;;;;4985521;28;20180;-92
2023/07/24 11:57:01;;;;;;;3.90;2.47;;;25.50;1.00;;;;;;4986298;28;20177;-91
2023/07/24 11:59:39;;;;;;;2.20;2.00;;;25.60;1.00;;;;;;4999037;28;20204;-90
2023/07/24 12:02:48;;;;;;;1.88;1.77;;;25.70;1.00;;;;;;4960012;28;20170;-90
2023/07/24 12:05:18;;;;;;;2.28;2.08;;;25.70;1.00;;;;;;4979662;28;20193;-92
2023/07/24 12:07:46;;;;;;;2.55;1.80;;;25.60;1.00;;;;;;4958255;28;20243;-91
2023/07/24 12:10:13;;;;;;;2.88;2.05;;;25.80;1.00;;;;;;4962442;28;20201;-92
2023/07/24 12:33:38;;;;;;;2.97;2.40;;;24.80;1.00;;;;;;5024038;28;20261;-92
2023/07/24 12:39:51;;;;;;;2.60;2.40;;;25.30;1.00;;;;;;5020604;28;20225;-91
2023/07/24 12:42:50;;;;;;;2.88;2.50;;;25.30;1.00;;;;;;4982758;28;20523;-93
2023/07/24 13:09:19;;;;;;;2.38;2.10;;;25.70;1.00;;;;;;4953889;29;20601;-91
2023/07/24 13:11:48;;;;;;;3.13;2.38;;;25.90;1.00;;;;;;4967412;28;20712;-91
2023/07/24 13:14:14;;;;;;;2.00;1.90;;;25.80;1.00;;;;;;4979886;28;20238;-91
2023/07/24 13:16:40;;;;;;;2.83;2.00;;;25.80;1.00;;;;;;4988971;28;20251;-91
2023/07/24 13:19:42;;;;;;;2.10;1.95;;;26.10;1.00;;;;;;4975708;28;20728;-92
2023/07/24 13:22:08;;;;;;;10.02;2.60;;;26.30;1.00;;;;;;4978620;28;20187;-93
2023/07/24 13:24:34;;;;;;;41.22;5.82;;;26.50;1.00;;;;;;4978844;28;20180;-91
2023/07/24 13:26:59;;;;;;;10.32;2.63;;;26.30;1.00;;;;;;4973858;28;20271;-91
2023/07/24 13:29:25;;;;;;;3.60;2.33;;;26.10;1.00;;;;;;4980718;28;20217;-91
2023/07/24 13:31:53;;;;;;;3.65;2.22;;;26.10;1.00;;;;;;4987884;28;20262;-91
2023/07/24 13:34:19;;;;;;;2.03;1.92;;;26.00;1.00;;;;;;4983573;28;20220;-91
2023/07/24 13:36:47;;;;;;;2.78;2.05;;;25.70;1.00;;;;;;4992751;28;20603;-91
2023/07/24 13:39:13;;;;;;;2.72;2.28;;;25.70;1.00;;;;;;4974916;28;20200;-91
2023/07/24 13:45:54;;;;;;;2.10;1.88;;;25.80;1.00;;;;;;5010110;28;20233;-93
2023/07/24 13:55:51;;;;;;;2.40;2.20;;;26.10;1.00;;;;;;4972643;28;20219;-92
2023/07/24 13:58:16;;;;;;;3.53;2.50;;;26.40;1.00;;;;;;4973391;28;20208;-91
2023/07/24 14:00:42;;;;;;;3.03;2.83;;;26.50;1.00;;;;;;4991206;28;20179;-93
2023/07/24 14:03:08;;;;;;;3.30;3.00;;;26.30;1.00;;;;;;4984815;28;20223;-93
2023/07/24 14:05:36;;;;;;;3.90;3.60;;;26.30;1.00;;;;;;4992078;28;20225;-92
2023/07/24 14:08:02;;;;;;;3.70;3.35;;;26.00;1.00;;;;;;4993288;28;20192;-92
2023/07/24 14:10:29;;;;;;;4.18;3.50;;;25.50;1.00;;;;;;4993911;28;20216;-90
2023/07/24 14:12:55;;;;;;;5.07;3.40;;;25.40;1.00;;;;;;4997418;28;20189;-91
2023/07/24 14:35:56;;;;;;;3.38;3.08;;;24.70;1.00;;;;;;5009245;28;20183;-91
2023/07/24 14:38:21;;;;;;;3.15;2.85;;;24.70;1.00;;;;;;4985485;28;20242;-91
2023/07/24 14:40:47;;;;;;;3.05;2.83;;;24.60;1.00;;;;;;4981956;28;20235;-92
2023/07/24 14:54:09;;;;;;;3.88;2.50;;;24.30;1.00;;;;;;5003233;28;20744;-91
2023/07/24 14:56:35;;;;;;;2.90;2.70;;;24.40;1.00;;;;;;4985914;28;20188;-91
2023/07/24 14:59:00;;;;;;;2.78;2.53;;;24.10;1.00;;;;;;4996189;28;20218;-91
2023/07/24 15:08:48;;;;;;;2.80;2.60;;;23.90;1.00;;;;;;4997451;28;20260;-90
2023/07/24 15:11:14;;;;;;;2.65;2.47;;;23.90;1.00;;;;;;5010923;28;20183;-91
2023/07/24 15:13:40;;;;;;;2.95;2.65;;;23.60;1.00;;;;;;5002006;28;20719;-90
2023/07/24 15:16:06;;;;;;;3.08;2.78;;;23.50;1.00;;;;;;4984447;28;20160;-91
2023/07/24 15:18:34;;;;;;;3.83;3.40;;;23.10;1.00;;;;;;4997990;28;20204;-91
2023/07/24 15:21:00;;;;;;;5.93;2.45;;;22.80;1.00;;;;;;4989936;28;20184;-91
2023/07/24 15:23:25;;;;;;;3.10;1.20;;;22.50;1.00;;;;;;4993041;28;20374;-91
2023/07/24 15:25:51;;;;;;;1.40;1.30;;;21.60;1.00;;;;;;4978657;28;20181;-92
2023/07/24 15:28:17;;;;;;;1.55;1.10;;;21.30;1.00;;;;;;4984091;28;20560;-92
2023/07/24 15:31:35;;;;;;;2.55;0.90;;;21.10;1.00;;;;;;4977808;28;20192;-92
2023/07/24 15:34:01;;;;;;;4.38;1.40;;;20.70;1.00;;;;;;4983414;28;20208;-94
2023/07/24 15:36:26;;;;;;;7.38;2.00;;;20.30;45.30;;;;;;4974085;28;20269;-90
2023/07/24 15:38:52;;;;;;;6.40;2.10;;;19.80;1.00;;;;;;4988493;28;20225;-87
2023/07/24 15:41:17;;;;;;;7.00;2.88;;;19.20;1.00;;;;;;4976224;28;20207;-88
2023/07/24 15:43:43;;;;;;;6.32;2.30;;;18.90;99.90;;;;;;4975267;28;20192;-89
2023/07/24 15:46:09;;;;;;;9.15;3.17;;;18.80;1.00;;;;;;4977518;28;20196;-88
2023/07/24 15:48:34;;;;;;;4.03;3.13;;;18.70;1.00;;;;;;4973611;28;20631;-88
2023/07/24 15:51:01;;;;;;;5.85;2.92;;;18.40;99.90;;;;;;4972832;28;20180;-86
2023/07/24 15:53:26;;;;;;;4.63;2.75;;;18.30;1.00;;;;;;4974915;28;20184;-88
2023/07/24 15:55:52;;;;;;;3.00;2.67;;;18.20;99.90;;;;;;4974341;28;20232;-88
2023/07/24 15:58:17;;;;;;;2.90;2.53;;;18.10;1.00;;;;;;4975981;28;20664;-87
2023/07/24 16:00:43;;;;;;;3.40;2.42;;;18.10;1.00;;;;;;4975521;28;20189;-88
2023/07/24 16:03:09;;;;;;;2.45;2.10;;;18.10;99.90;;;;;;4994531;28;20219;-89
2023/07/24 16:05:34;;;;;;;3.95;2.75;;;18.20;1.00;;;;;;4977578;28;20658;-87
2023/07/24 16:08:01;;;;;;;4.90;3.00;;;18.50;1.00;;;;;;4977228;28;20188;-89
2023/07/24 16:10:26;;;;;;;3.90;2.30;;;18.70;1.00;;;;;;4973721;28;20231;-86
2023/07/24 16:12:52;;;;;;;3.15;2.55;;;18.80;1.00;;;;;;4979850;28;20212;-90